Bookmark and Share
Track history (hours):
 

Fortunia

Last reported at 2014-Apr-16 15:28 UTC. Time now 2014-Apr-19 14:43 UTC.
Position N 37°06' E 005°15'.

Length 121 m; draft 6 m.

Type: Ship. MMSI: 304010638.

NotesDate/timePositionNaut miles runAvg speedWind from/ knotsBaromVisibWave heightAir tempDewpointWater temp
2014-Apr-16 15:28N 37°06' E 005°15'9 9.8
2014-Apr-16 14:33N 37°05' E 005°04'2110.5
2014-Apr-16 12:31N 37°03' E 004°37'1010.8
2014-Apr-16 11:33N 37°01' E 004°24'1111.2
2014-Apr-16 10:32N 37°01' E 004°10'1210.4
2014-Apr-16 09:25N 37°00' E 003°56'44 7.3
2014-Apr-16 03:26N 36°46' E 003°04'0 0.0
2014-Apr-15 15:24N 36°46' E 003°04'0 0.0
2014-Apr-15 09:30N 36°46' E 003°04'0 0.0
2014-Apr-15 08:29N 36°46' E 003°04'7 0.3
2014-Apr-14 08:30N 36°52' E 003°06'1010.3
2014-Apr-14 07:30N 37°01' E 003°01'10311.5
2014-Apr-13 22:33N 38°41' E 002°28'1110.5
2014-Apr-13 21:33N 38°51' E 002°25'1010.0
2014-Apr-13 20:33N 39°01' E 002°21'10 9.9
2014-Apr-13 19:33N 39°10' E 002°17'9 9.2
2014-Apr-13 18:34N 39°19' E 002°15'1010.0
2014-Apr-13 17:33N 39°29' E 002°11'1010.0
2014-Apr-13 16:33N 39°39' E 002°10'1010.0
2014-Apr-13 15:33N 39°49' E 002°09'1010.3
2014-Apr-13 14:34N 39°59' E 002°10'10 9.9
2014-Apr-13 13:33N 40°09' E 002°10'1010.5
2014-Apr-13 12:34N 40°20' E 002°10'10 9.9
2014-Apr-13 11:33N 40°29' E 002°10'1010.2
2014-Apr-13 10:34N 40°40' E 002°10'1110.6
2014-Apr-13 09:33N 40°50' E 002°10'1110.8
2014-Apr-13 08:33N 41°01' E 002°10'1110.8
2014-Apr-13 07:33N 41°12' E 002°11'9 9.3
2014-Apr-13 06:33N 41°21' E 002°10'0 0.0
2014-Apr-13 02:04N 41°21' E 002°10'0 0.0
2014-Apr-13 00:28N 41°21' E 002°10'0 0.0
2014-Apr-12 23:33N 41°21' E 002°10'1 1.1
2014-Apr-12 22:33N 41°20' E 002°10'2 2.0
2014-Apr-12 21:29N 41°18' E 002°09'0 0.0
2014-Apr-12 20:17N 41°18' E 002°09'2 0.6
2014-Apr-12 16:27N 41°17' E 002°11'910.3
2014-Apr-12 15:33N 41°10' E 002°03'1010.4
2014-Apr-12 14:33N 41°03' E 001°54'9 9.2
2014-Apr-12 13:33N 40°56' E 001°45'9 9.5
2014-Apr-12 12:33N 40°49' E 001°37'9 9.2
2014-Apr-12 11:32N 40°41' E 001°30'9 9.3
2014-Apr-12 10:33N 40°34' E 001°22'10 9.6
2014-Apr-12 09:33N 40°27' E 001°14'1111.2
2014-Apr-12 08:33N 40°18' E 001°04'1010.1
2014-Apr-12 07:33N 40°12' E 000°53'1010.1
2014-Apr-12 06:33N 40°07' E 000°43'1010.2
2014-Apr-12 05:33N 40°00' E 000°32'95 4.4
2014-Apr-11 08:05N 38°27' E 000°14'610.6
2014-Apr-11 07:33N 38°22' E 000°10'2210.5
2014-Apr-11 05:28N 38°04' W 000°05'13 9.5
2014-Apr-11 04:04N 37°53' W 000°14'1610.6
2014-Apr-11 02:33N 37°39' W 000°26'1010.3
2014-Apr-11 01:33N 37°31' W 000°34'1010.0
2014-Apr-11 00:33N 37°30' W 000°47'10 0.9
2014-Apr-10 13:19N 37°33' W 000°59'7 9.7
2014-Apr-10 12:33N 37°31' W 000°50'16510.7
2014-Apr-09 21:08N 36°57' E 002°33'2710.6
2014-Apr-09 18:33N 36°49' E 003°06'  

Dump ship's entire track history

sailing weather and tide predictions

Fortunia — V2OG3 — position and weather